sensor_id;sensor_type;location;lat;lon;timestamp;pressure;altitude;pressure_sealevel;temperature;humidity
22566;BME280;11449;51.330;19.378;2023-05-07T00:02:52;99792.34;;;9.88;100.00
22566;BME280;11449;51.330;19.378;2023-05-07T00:08:00;99797.63;;;10.24;100.00
22566;BME280;11449;51.330;19.378;2023-05-07T00:13:08;99795.27;;;10.10;100.00
22566;BME280;11449;51.330;19.378;2023-05-07T00:18:16;99795.56;;;10.03;100.00
22566;BME280;11449;51.330;19.378;2023-05-07T00:23:24;99795.16;;;9.97;100.00
22566;BME280;11449;51.330;19.378;2023-05-07T00:28:32;99801.09;;;10.07;100.00
22566;BME280;11449;51.330;19.378;2023-05-07T00:33:39;99807.73;;;9.89;100.00
22566;BME280;11449;51.330;19.378;2023-05-07T00:38:47;99804.66;;;9.75;100.00
22566;BME280;11449;51.330;19.378;2023-05-07T00:43:55;99810.05;;;9.76;100.00
22566;BME280;11449;51.330;19.378;2023-05-07T00:49:02;99810.24;;;9.85;100.00
22566;BME280;11449;51.330;19.378;2023-05-07T00:54:11;99809.50;;;9.87;100.00
22566;BME280;11449;51.330;19.378;2023-05-07T00:59:19;99808.85;;;10.13;100.00
22566;BME280;11449;51.330;19.378;2023-05-07T01:04:26;99808.98;;;9.57;100.00
22566;BME280;11449;51.330;19.378;2023-05-07T01:09:35;99805.77;;;9.91;100.00
22566;BME280;11449;51.330;19.378;2023-05-07T01:14:43;99804.55;;;9.61;100.00
22566;BME280;11449;51.330;19.378;2023-05-07T01:19:51;99804.65;;;9.75;100.00
22566;BME280;11449;51.330;19.378;2023-05-07T01:25:00;99812.47;;;9.57;100.00
22566;BME280;11449;51.330;19.378;2023-05-07T01:30:09;99813.88;;;9.36;100.00
22566;BME280;11449;51.330;19.378;2023-05-07T01:35:24;99820.34;;;9.47;100.00
22566;BME280;11449;51.330;19.378;2023-05-07T01:40:33;99822.04;;;9.61;100.00
22566;BME280;11449;51.330;19.378;2023-05-07T01:45:42;99830.96;;;9.90;100.00
22566;BME280;11449;51.330;19.378;2023-05-07T01:50:52;99833.45;;;9.79;100.00
22566;BME280;11449;51.330;19.378;2023-05-07T01:56:00;99836.55;;;9.81;100.00
22566;BME280;11449;51.330;19.378;2023-05-07T02:01:09;99837.92;;;9.61;100.00
22566;BME280;11449;51.330;19.378;2023-05-07T02:06:17;99844.19;;;9.85;100.00
22566;BME280;11449;51.330;19.378;2023-05-07T02:11:27;99845.52;;;9.58;100.00
22566;BME280;11449;51.330;19.378;2023-05-07T02:16:35;99844.08;;;9.81;100.00
22566;BME280;11449;51.330;19.378;2023-05-07T02:21:44;99841.49;;;10.08;100.00
22566;BME280;11449;51.330;19.378;2023-05-07T02:26:52;99839.42;;;9.97;100.00
22566;BME280;11449;51.330;19.378;2023-05-07T02:32:00;99847.40;;;9.80;100.00
22566;BME280;11449;51.330;19.378;2023-05-07T02:37:08;99851.44;;;9.80;100.00
22566;BME280;11449;51.330;19.378;2023-05-07T02:42:16;99855.59;;;9.82;100.00
22566;BME280;11449;51.330;19.378;2023-05-07T02:47:24;99860.16;;;10.11;100.00
22566;BME280;11449;51.330;19.378;2023-05-07T02:52:36;99858.15;;;10.18;100.00
22566;BME280;11449;51.330;19.378;2023-05-07T02:57:44;99861.95;;;9.99;100.00
22566;BME280;11449;51.330;19.378;2023-05-07T03:02:51;99863.16;;;10.00;100.00
22566;BME280;11449;51.330;19.378;2023-05-07T03:07:59;99862.91;;;9.93;100.00
22566;BME280;11449;51.330;19.378;2023-05-07T03:13:07;99867.98;;;9.84;100.00
22566;BME280;11449;51.330;19.378;2023-05-07T03:18:15;99867.03;;;9.99;100.00
22566;BME280;11449;51.330;19.378;2023-05-07T03:23:23;99869.58;;;10.23;100.00
22566;BME280;11449;51.330;19.378;2023-05-07T03:28:31;99879.02;;;9.72;100.00
22566;BME280;11449;51.330;19.378;2023-05-07T03:33:54;99874.98;;;9.74;100.00
22566;BME280;11449;51.330;19.378;2023-05-07T03:39:02;99883.85;;;9.76;100.00
22566;BME280;11449;51.330;19.378;2023-05-07T03:44:13;99891.23;;;9.86;100.00
22566;BME280;11449;51.330;19.378;2023-05-07T03:49:21;99897.50;;;9.86;100.00
22566;BME280;11449;51.330;19.378;2023-05-07T03:54:30;99899.03;;;9.78;100.00
22566;BME280;11449;51.330;19.378;2023-05-07T03:59:37;99906.73;;;9.88;100.00
22566;BME280;11449;51.330;19.378;2023-05-07T04:04:45;99909.70;;;9.68;100.00
22566;BME280;11449;51.330;19.378;2023-05-07T04:09:54;99909.52;;;9.79;100.00
22566;BME280;11449;51.330;19.378;2023-05-07T04:15:02;99916.14;;;9.71;100.00
22566;BME280;11449;51.330;19.378;2023-05-07T04:20:13;99925.00;;;9.62;100.00
22566;BME280;11449;51.330;19.378;2023-05-07T04:25:25;99935.45;;;9.66;100.00
22566;BME280;11449;51.330;19.378;2023-05-07T04:30:41;99945.42;;;10.09;100.00
22566;BME280;11449;51.330;19.378;2023-05-07T04:35:49;99952.70;;;9.92;100.00
22566;BME280;11449;51.330;19.378;2023-05-07T04:41:02;99950.97;;;9.79;100.00
22566;BME280;11449;51.330;19.378;2023-05-07T04:46:14;99948.77;;;9.86;100.00
22566;BME280;11449;51.330;19.378;2023-05-07T04:51:22;99954.83;;;9.78;100.00
22566;BME280;11449;51.330;19.378;2023-05-07T04:56:30;99966.52;;;9.91;100.00
22566;BME280;11449;51.330;19.378;2023-05-07T05:01:39;99971.38;;;9.72;100.00
22566;BME280;11449;51.330;19.378;2023-05-07T05:06:48;99982.54;;;9.73;100.00
22566;BME280;11449;51.330;19.378;2023-05-07T05:11:56;99987.99;;;9.94;100.00
22566;BME280;11449;51.330;19.378;2023-05-07T05:17:04;99997.98;;;10.06;100.00
22566;BME280;11449;51.330;19.378;2023-05-07T05:22:12;100003.93;;;9.94;100.00
22566;BME280;11449;51.330;19.378;2023-05-07T05:27:20;100008.30;;;9.94;100.00
22566;BME280;11449;51.330;19.378;2023-05-07T05:32:29;100013.74;;;9.92;100.00
22566;BME280;11449;51.330;19.378;2023-05-07T05:37:37;100016.93;;;10.02;100.00
22566;BME280;11449;51.330;19.378;2023-05-07T05:42:45;100015.72;;;10.12;100.00
22566;BME280;11449;51.330;19.378;2023-05-07T05:47:56;100016.36;;;10.04;100.00
22566;BME280;11449;51.330;19.378;2023-05-07T05:53:05;100020.86;;;9.96;100.00
22566;BME280;11449;51.330;19.378;2023-05-07T05:58:14;100026.80;;;9.85;100.00
22566;BME280;11449;51.330;19.378;2023-05-07T06:03:27;100035.60;;;9.94;100.00
22566;BME280;11449;51.330;19.378;2023-05-07T06:08:36;100047.05;;;10.01;100.00
22566;BME280;11449;51.330;19.378;2023-05-07T06:13:45;100051.85;;;9.83;100.00
22566;BME280;11449;51.330;19.378;2023-05-07T06:18:53;100054.82;;;10.07;100.00
22566;BME280;11449;51.330;19.378;2023-05-07T06:24:01;100051.20;;;10.03;100.00
22566;BME280;11449;51.330;19.378;2023-05-07T06:29:09;100053.63;;;10.04;100.00
22566;BME280;11449;51.330;19.378;2023-05-07T06:34:17;100061.77;;;10.09;100.00
22566;BME280;11449;51.330;19.378;2023-05-07T06:39:26;100065.14;;;10.43;100.00
22566;BME280;11449;51.330;19.378;2023-05-07T06:44:34;100062.98;;;10.46;100.00
22566;BME280;11449;51.330;19.378;2023-05-07T06:49:44;100061.18;;;10.28;100.00
22566;BME280;11449;51.330;19.378;2023-05-07T06:54:53;100063.15;;;10.57;100.00
22566;BME280;11449;51.330;19.378;2023-05-07T07:00:01;100069.81;;;10.56;100.00
22566;BME280;11449;51.330;19.378;2023-05-07T07:05:14;100081.77;;;10.19;100.00
22566;BME280;11449;51.330;19.378;2023-05-07T07:10:22;100087.25;;;10.16;100.00
22566;BME280;11449;51.330;19.378;2023-05-07T07:15:30;100086.83;;;10.32;100.00
22566;BME280;11449;51.330;19.378;2023-05-07T07:20:38;100089.55;;;10.26;100.00
22566;BME280;11449;51.330;19.378;2023-05-07T07:25:46;100101.52;;;10.34;100.00
22566;BME280;11449;51.330;19.378;2023-05-07T07:30:55;100111.91;;;10.41;100.00
22566;BME280;11449;51.330;19.378;2023-05-07T07:36:05;100122.41;;;10.30;100.00
22566;BME280;11449;51.330;19.378;2023-05-07T07:41:14;100127.11;;;10.66;100.00
22566;BME280;11449;51.330;19.378;2023-05-07T07:46:22;100129.22;;;10.53;100.00
22566;BME280;11449;51.330;19.378;2023-05-07T07:51:32;100125.11;;;10.48;100.00
22566;BME280;11449;51.330;19.378;2023-05-07T07:56:39;100122.38;;;11.06;100.00
22566;BME280;11449;51.330;19.378;2023-05-07T08:01:48;100126.79;;;10.95;100.00
22566;BME280;11449;51.330;19.378;2023-05-07T08:06:58;100130.63;;;10.64;100.00
22566;BME280;11449;51.330;19.378;2023-05-07T08:12:07;100134.05;;;10.58;100.00
22566;BME280;11449;51.330;19.378;2023-05-07T08:17:15;100132.80;;;10.59;100.00
22566;BME280;11449;51.330;19.378;2023-05-07T08:22:24;100134.75;;;10.59;100.00
22566;BME280;11449;51.330;19.378;2023-05-07T08:27:32;100148.12;;;10.42;100.00
22566;BME280;11449;51.330;19.378;2023-05-07T08:32:40;100148.33;;;10.42;100.00
22566;BME280;11449;51.330;19.378;2023-05-07T08:37:47;100155.09;;;10.79;100.00
22566;BME280;11449;51.330;19.378;2023-05-07T08:42:56;100159.30;;;10.78;100.00
22566;BME280;11449;51.330;19.378;2023-05-07T08:48:09;100156.89;;;10.54;100.00
22566;BME280;11449;51.330;19.378;2023-05-07T08:53:19;100169.83;;;10.67;100.00
22566;BME280;11449;51.330;19.378;2023-05-07T08:58:28;100177.19;;;10.66;100.00
22566;BME280;11449;51.330;19.378;2023-05-07T09:03:37;100186.31;;;11.19;100.00
22566;BME280;11449;51.330;19.378;2023-05-07T09:08:52;100191.59;;;11.48;100.00
22566;BME280;11449;51.330;19.378;2023-05-07T09:14:03;100197.44;;;10.94;100.00
22566;BME280;11449;51.330;19.378;2023-05-07T09:19:14;100208.20;;;11.21;100.00
22566;BME280;11449;51.330;19.378;2023-05-07T09:24:21;100216.96;;;11.31;100.00
22566;BME280;11449;51.330;19.378;2023-05-07T09:29:30;100217.83;;;11.32;100.00
22566;BME280;11449;51.330;19.378;2023-05-07T09:34:42;100218.70;;;10.78;100.00
22566;BME280;11449;51.330;19.378;2023-05-07T09:39:51;100223.84;;;11.19;100.00
22566;BME280;11449;51.330;19.378;2023-05-07T09:44:59;100228.23;;;11.18;100.00
22566;BME280;11449;51.330;19.378;2023-05-07T09:50:12;100222.80;;;10.97;100.00
22566;BME280;11449;51.330;19.378;2023-05-07T09:55:23;100231.14;;;11.22;100.00
22566;BME280;11449;51.330;19.378;2023-05-07T10:00:31;100228.13;;;12.40;100.00
22566;BME280;11449;51.330;19.378;2023-05-07T10:05:42;100235.73;;;11.50;100.00
22566;BME280;11449;51.330;19.378;2023-05-07T10:10:53;100238.85;;;11.42;100.00
22566;BME280;11449;51.330;19.378;2023-05-07T10:16:03;100237.25;;;11.34;100.00
22566;BME280;11449;51.330;19.378;2023-05-07T10:21:19;100242.47;;;11.77;100.00
22566;BME280;11449;51.330;19.378;2023-05-07T10:26:31;100236.97;;;11.81;100.00
22566;BME280;11449;51.330;19.378;2023-05-07T10:32:11;100234.17;;;12.56;100.00
22566;BME280;11449;51.330;19.378;2023-05-07T10:37:22;100235.13;;;12.52;100.00
22566;BME280;11449;51.330;19.378;2023-05-07T10:42:31;100232.45;;;13.36;100.00
22566;BME280;11449;51.330;19.378;2023-05-07T10:48:05;100245.48;;;12.21;100.00
22566;BME280;11449;51.330;19.378;2023-05-07T10:58:31;100254.77;;;11.94;100.00
22566;BME280;11449;51.330;19.378;2023-05-07T11:04:14;100258.23;;;12.15;100.00
22566;BME280;11449;51.330;19.378;2023-05-07T11:15:34;100275.04;;;11.18;100.00
22566;BME280;11449;51.330;19.378;2023-05-07T11:20:53;100275.23;;;11.28;100.00
22566;BME280;11449;51.330;19.378;2023-05-07T11:26:10;100271.82;;;12.11;100.00
22566;BME280;11449;51.330;19.378;2023-05-07T11:31:21;100271.02;;;14.87;100.00
22566;BME280;11449;51.330;19.378;2023-05-07T11:36:32;100271.54;;;17.32;100.00
22566;BME280;11449;51.330;19.378;2023-05-07T11:41:41;100274.47;;;15.98;100.00
22566;BME280;11449;51.330;19.378;2023-05-07T11:46:50;100263.14;;;14.25;100.00
22566;BME280;11449;51.330;19.378;2023-05-07T11:51:58;100277.13;;;13.26;100.00
22566;BME280;11449;51.330;19.378;2023-05-07T11:57:05;100285.89;;;13.09;100.00
22566;BME280;11449;51.330;19.378;2023-05-07T12:02:15;100292.72;;;12.87;100.00
22566;BME280;11449;51.330;19.378;2023-05-07T12:07:24;100296.02;;;13.12;100.00
22566;BME280;11449;51.330;19.378;2023-05-07T12:12:41;100298.97;;;13.29;100.00
22566;BME280;11449;51.330;19.378;2023-05-07T12:17:49;100296.02;;;12.80;100.00
22566;BME280;11449;51.330;19.378;2023-05-07T12:22:57;100294.84;;;13.37;100.00
22566;BME280;11449;51.330;19.378;2023-05-07T12:28:12;100297.10;;;13.61;100.00
22566;BME280;11449;51.330;19.378;2023-05-07T12:33:25;100308.98;;;12.48;100.00
22566;BME280;11449;51.330;19.378;2023-05-07T12:38:37;100319.30;;;12.44;100.00
22566;BME280;11449;51.330;19.378;2023-05-07T12:43:45;100331.41;;;12.53;100.00
22566;BME280;11449;51.330;19.378;2023-05-07T12:48:53;100336.24;;;12.39;100.00
22566;BME280;11449;51.330;19.378;2023-05-07T12:54:01;100336.85;;;12.27;100.00
22566;BME280;11449;51.330;19.378;2023-05-07T12:59:08;100336.77;;;12.03;100.00
22566;BME280;11449;51.330;19.378;2023-05-07T13:04:16;100346.25;;;12.03;100.00
22566;BME280;11449;51.330;19.378;2023-05-07T13:09:24;100346.02;;;12.15;100.00
22566;BME280;11449;51.330;19.378;2023-05-07T13:14:32;100346.11;;;13.65;100.00
22566;BME280;11449;51.330;19.378;2023-05-07T13:19:40;100341.14;;;13.87;100.00
22566;BME280;11449;51.330;19.378;2023-05-07T13:24:47;100336.35;;;13.47;100.00
22566;BME280;11449;51.330;19.378;2023-05-07T13:29:55;100337.13;;;13.36;100.00
22566;BME280;11449;51.330;19.378;2023-05-07T13:35:03;100340.27;;;12.83;100.00
22566;BME280;11449;51.330;19.378;2023-05-07T13:40:12;100339.70;;;13.08;100.00
22566;BME280;11449;51.330;19.378;2023-05-07T13:45:19;100335.55;;;12.97;100.00
22566;BME280;11449;51.330;19.378;2023-05-07T13:50:27;100335.41;;;13.19;100.00
22566;BME280;11449;51.330;19.378;2023-05-07T13:55:37;100329.00;;;12.66;100.00
22566;BME280;11449;51.330;19.378;2023-05-07T14:00:45;100331.61;;;12.16;100.00
22566;BME280;11449;51.330;19.378;2023-05-07T14:05:52;100330.91;;;12.59;100.00
22566;BME280;11449;51.330;19.378;2023-05-07T14:11:00;100330.52;;;11.99;100.00
22566;BME280;11449;51.330;19.378;2023-05-07T14:16:10;100329.59;;;12.71;100.00
22566;BME280;11449;51.330;19.378;2023-05-07T14:21:25;100331.57;;;12.94;100.00
22566;BME280;11449;51.330;19.378;2023-05-07T14:26:33;100336.55;;;13.00;100.00
22566;BME280;11449;51.330;19.378;2023-05-07T14:31:40;100339.16;;;13.32;100.00
22566;BME280;11449;51.330;19.378;2023-05-07T14:36:48;100346.48;;;13.20;100.00
22566;BME280;11449;51.330;19.378;2023-05-07T14:41:56;100351.83;;;12.92;100.00
22566;BME280;11449;51.330;19.378;2023-05-07T14:47:04;100355.48;;;13.20;100.00
22566;BME280;11449;51.330;19.378;2023-05-07T14:52:12;100365.69;;;13.02;100.00
22566;BME280;11449;51.330;19.378;2023-05-07T14:57:20;100371.13;;;12.86;100.00
22566;BME280;11449;51.330;19.378;2023-05-07T15:02:28;100372.76;;;12.75;100.00
22566;BME280;11449;51.330;19.378;2023-05-07T15:07:36;100376.09;;;12.93;100.00
22566;BME280;11449;51.330;19.378;2023-05-07T15:12:44;100376.53;;;13.05;100.00
22566;BME280;11449;51.330;19.378;2023-05-07T15:17:52;100382.24;;;13.09;100.00
22566;BME280;11449;51.330;19.378;2023-05-07T15:22:59;100382.25;;;12.76;100.00
22566;BME280;11449;51.330;19.378;2023-05-07T15:28:07;100386.34;;;12.56;100.00
22566;BME280;11449;51.330;19.378;2023-05-07T15:33:15;100386.20;;;12.80;100.00
22566;BME280;11449;51.330;19.378;2023-05-07T15:38:18;100387.95;;;12.89;100.00
22566;BME280;11449;51.330;19.378;2023-05-07T15:43:26;100394.27;;;12.19;100.00
22566;BME280;11449;51.330;19.378;2023-05-07T15:48:28;100394.69;;;12.14;100.00
22566;BME280;11449;51.330;19.378;2023-05-07T15:53:36;100401.48;;;12.07;100.00
22566;BME280;11449;51.330;19.378;2023-05-07T15:58:44;100397.55;;;12.30;100.00
22566;BME280;11449;51.330;19.378;2023-05-07T16:03:52;100405.73;;;12.44;100.00
22566;BME280;11449;51.330;19.378;2023-05-07T16:09:00;100405.40;;;12.42;100.00
22566;BME280;11449;51.330;19.378;2023-05-07T16:14:08;100408.19;;;12.53;100.00
22566;BME280;11449;51.330;19.378;2023-05-07T16:19:16;100406.41;;;12.26;100.00
22566;BME280;11449;51.330;19.378;2023-05-07T16:24:24;100409.92;;;12.35;100.00
22566;BME280;11449;51.330;19.378;2023-05-07T16:29:32;100407.58;;;12.10;100.00
22566;BME280;11449;51.330;19.378;2023-05-07T16:34:40;100412.38;;;12.26;100.00
22566;BME280;11449;51.330;19.378;2023-05-07T16:39:48;100413.67;;;11.91;100.00
22566;BME280;11449;51.330;19.378;2023-05-07T16:44:55;100413.61;;;11.74;100.00
22566;BME280;11449;51.330;19.378;2023-05-07T16:50:04;100420.66;;;11.94;100.00
22566;BME280;11449;51.330;19.378;2023-05-07T16:55:12;100421.73;;;11.70;100.00
22566;BME280;11449;51.330;19.378;2023-05-07T17:00:20;100421.12;;;11.64;100.00
22566;BME280;11449;51.330;19.378;2023-05-07T17:05:28;100427.20;;;11.55;100.00
22566;BME280;11449;51.330;19.378;2023-05-07T17:10:36;100434.09;;;12.00;100.00
22566;BME280;11449;51.330;19.378;2023-05-07T17:15:43;100432.98;;;11.80;100.00
22566;BME280;11449;51.330;19.378;2023-05-07T17:20:52;100436.39;;;11.98;100.00
22566;BME280;11449;51.330;19.378;2023-05-07T17:26:00;100440.39;;;11.90;100.00
22566;BME280;11449;51.330;19.378;2023-05-07T17:31:08;100443.02;;;11.90;100.00
22566;BME280;11449;51.330;19.378;2023-05-07T17:36:16;100450.52;;;11.81;100.00
22566;BME280;11449;51.330;19.378;2023-05-07T17:41:24;100452.98;;;11.68;100.00
22566;BME280;11449;51.330;19.378;2023-05-07T17:46:32;100453.71;;;11.54;100.00
22566;BME280;11449;51.330;19.378;2023-05-07T17:51:39;100461.18;;;11.35;100.00
22566;BME280;11449;51.330;19.378;2023-05-07T17:56:47;100464.02;;;11.46;100.00
22566;BME280;11449;51.330;19.378;2023-05-07T18:01:55;100468.00;;;11.23;100.00
22566;BME280;11449;51.330;19.378;2023-05-07T18:07:03;100473.98;;;11.34;100.00
22566;BME280;11449;51.330;19.378;2023-05-07T18:12:11;100477.35;;;11.19;100.00
22566;BME280;11449;51.330;19.378;2023-05-07T18:17:20;100481.77;;;11.01;100.00
22566;BME280;11449;51.330;19.378;2023-05-07T18:22:27;100481.15;;;11.23;100.00
22566;BME280;11449;51.330;19.378;2023-05-07T18:27:35;100480.79;;;11.24;100.00
22566;BME280;11449;51.330;19.378;2023-05-07T18:32:43;100486.36;;;11.13;100.00
22566;BME280;11449;51.330;19.378;2023-05-07T18:37:48;100496.67;;;11.01;100.00
22566;BME280;11449;51.330;19.378;2023-05-07T18:42:56;100502.35;;;10.95;100.00
22566;BME280;11449;51.330;19.378;2023-05-07T18:48:05;100501.33;;;10.92;100.00
22566;BME280;11449;51.330;19.378;2023-05-07T18:53:15;100499.22;;;10.77;100.00
22566;BME280;11449;51.330;19.378;2023-05-07T18:58:23;100501.70;;;10.74;100.00
22566;BME280;11449;51.330;19.378;2023-05-07T19:03:31;100505.89;;;10.59;100.00
22566;BME280;11449;51.330;19.378;2023-05-07T19:08:39;100516.40;;;10.59;100.00
22566;BME280;11449;51.330;19.378;2023-05-07T19:13:47;100521.69;;;10.56;100.00
22566;BME280;11449;51.330;19.378;2023-05-07T19:18:55;100528.48;;;10.58;100.00
22566;BME280;11449;51.330;19.378;2023-05-07T19:24:03;100525.48;;;10.42;100.00
22566;BME280;11449;51.330;19.378;2023-05-07T19:29:10;100526.89;;;10.41;100.00
22566;BME280;11449;51.330;19.378;2023-05-07T19:34:18;100530.27;;;10.36;100.00
22566;BME280;11449;51.330;19.378;2023-05-07T19:39:26;100535.58;;;10.29;100.00
22566;BME280;11449;51.330;19.378;2023-05-07T19:44:35;100538.17;;;10.07;100.00
22566;BME280;11449;51.330;19.378;2023-05-07T19:49:38;100537.95;;;9.85;100.00
22566;BME280;11449;51.330;19.378;2023-05-07T19:54:46;100543.58;;;9.82;100.00
22566;BME280;11449;51.330;19.378;2023-05-07T19:59:54;100538.31;;;9.83;100.00
22566;BME280;11449;51.330;19.378;2023-05-07T20:05:02;100541.36;;;9.73;100.00
22566;BME280;11449;51.330;19.378;2023-05-07T20:10:10;100550.16;;;9.61;100.00
22566;BME280;11449;51.330;19.378;2023-05-07T20:15:18;100552.37;;;9.36;100.00
22566;BME280;11449;51.330;19.378;2023-05-07T20:20:26;100555.80;;;9.05;100.00
22566;BME280;11449;51.330;19.378;2023-05-07T20:25:33;100556.55;;;8.85;100.00
22566;BME280;11449;51.330;19.378;2023-05-07T20:30:41;100561.39;;;8.99;100.00
22566;BME280;11449;51.330;19.378;2023-05-07T20:35:49;100560.23;;;8.79;100.00
22566;BME280;11449;51.330;19.378;2023-05-07T20:40:57;100559.67;;;8.96;100.00
22566;BME280;11449;51.330;19.378;2023-05-07T20:46:05;100558.68;;;8.61;100.00
22566;BME280;11449;51.330;19.378;2023-05-07T20:51:14;100571.08;;;8.44;100.00
22566;BME280;11449;51.330;19.378;2023-05-07T20:56:22;100574.90;;;8.26;100.00
22566;BME280;11449;51.330;19.378;2023-05-07T21:01:30;100573.31;;;8.23;100.00
22566;BME280;11449;51.330;19.378;2023-05-07T21:06:38;100575.41;;;8.24;100.00
22566;BME280;11449;51.330;19.378;2023-05-07T21:11:46;100580.11;;;8.18;100.00
22566;BME280;11449;51.330;19.378;2023-05-07T21:16:53;100583.89;;;7.93;100.00
22566;BME280;11449;51.330;19.378;2023-05-07T21:22:01;100585.10;;;7.83;100.00
22566;BME280;11449;51.330;19.378;2023-05-07T21:27:09;100592.40;;;7.74;100.00
22566;BME280;11449;51.330;19.378;2023-05-07T21:32:17;100596.24;;;7.80;100.00
22566;BME280;11449;51.330;19.378;2023-05-07T21:37:24;100603.41;;;7.86;100.00
22566;BME280;11449;51.330;19.378;2023-05-07T21:42:32;100604.54;;;7.56;100.00
22566;BME280;11449;51.330;19.378;2023-05-07T21:47:40;100603.48;;;7.53;100.00
22566;BME280;11449;51.330;19.378;2023-05-07T21:52:49;100603.02;;;7.32;100.00
22566;BME280;11449;51.330;19.378;2023-05-07T21:57:56;100611.90;;;7.29;100.00
22566;BME280;11449;51.330;19.378;2023-05-07T22:03:04;100616.18;;;7.49;100.00
22566;BME280;11449;51.330;19.378;2023-05-07T22:08:12;100618.44;;;7.46;100.00
22566;BME280;11449;51.330;19.378;2023-05-07T22:13:20;100618.70;;;7.30;100.00
22566;BME280;11449;51.330;19.378;2023-05-07T22:18:27;100613.70;;;7.08;100.00
22566;BME280;11449;51.330;19.378;2023-05-07T22:23:35;100614.73;;;7.07;100.00
22566;BME280;11449;51.330;19.378;2023-05-07T22:28:43;100615.98;;;7.12;100.00
22566;BME280;11449;51.330;19.378;2023-05-07T22:33:51;100612.34;;;7.17;100.00
22566;BME280;11449;51.330;19.378;2023-05-07T22:38:59;100610.84;;;7.26;100.00
22566;BME280;11449;51.330;19.378;2023-05-07T22:44:07;100607.16;;;7.22;100.00
22566;BME280;11449;51.330;19.378;2023-05-07T22:49:14;100605.16;;;7.08;100.00
22566;BME280;11449;51.330;19.378;2023-05-07T22:54:22;100606.00;;;7.33;100.00
22566;BME280;11449;51.330;19.378;2023-05-07T22:59:30;100599.73;;;7.03;100.00
22566;BME280;11449;51.330;19.378;2023-05-07T23:04:38;100595.52;;;7.30;100.00
22566;BME280;11449;51.330;19.378;2023-05-07T23:09:46;100596.66;;;7.49;100.00
22566;BME280;11449;51.330;19.378;2023-05-07T23:14:53;100594.36;;;7.08;100.00
22566;BME280;11449;51.330;19.378;2023-05-07T23:20:01;100597.31;;;7.08;100.00
22566;BME280;11449;51.330;19.378;2023-05-07T23:25:09;100601.86;;;7.10;100.00
22566;BME280;11449;51.330;19.378;2023-05-07T23:30:17;100597.91;;;7.18;100.00
22566;BME280;11449;51.330;19.378;2023-05-07T23:35:25;100587.92;;;6.82;100.00
22566;BME280;11449;51.330;19.378;2023-05-07T23:40:33;100592.45;;;6.82;100.00
22566;BME280;11449;51.330;19.378;2023-05-07T23:45:41;100593.27;;;6.76;100.00
22566;BME280;11449;51.330;19.378;2023-05-07T23:50:50;100585.34;;;6.62;100.00
22566;BME280;11449;51.330;19.378;2023-05-07T23:55:58;100592.30;;;6.39;100.00
